createdAt,value
2019-05-30T00:02:07.316Z,15.66
2019-05-30T00:04:33.375Z,15.60
2019-05-30T00:07:00.438Z,15.62
2019-05-30T00:09:26.481Z,15.69
2019-05-30T00:11:52.346Z,15.70
2019-05-30T00:14:18.209Z,15.72
2019-05-30T00:16:44.064Z,15.74
2019-05-30T00:19:09.962Z,15.68
2019-05-30T00:21:35.806Z,15.59
2019-05-30T00:24:02.085Z,15.56
2019-05-30T00:26:28.053Z,15.61
2019-05-30T00:28:53.901Z,15.60
2019-05-30T00:31:19.754Z,15.53
2019-05-30T00:33:45.822Z,15.62
2019-05-30T00:36:11.677Z,15.63
2019-05-30T00:38:37.529Z,15.57
2019-05-30T00:41:04.210Z,15.53
2019-05-30T00:43:30.244Z,15.55
2019-05-30T00:45:56.095Z,15.53
2019-05-30T00:48:21.966Z,15.42
2019-05-30T00:50:47.818Z,15.33
2019-05-30T00:53:13.797Z,15.42
2019-05-30T00:55:39.718Z,15.50
2019-05-30T00:58:07.321Z,15.43
2019-05-30T01:00:43.407Z,15.35
2019-05-30T01:03:03.598Z,15.47
2019-05-30T01:05:29.061Z,15.47
2019-05-30T01:07:54.913Z,15.42
2019-05-30T01:10:20.981Z,15.38
2019-05-30T01:12:46.956Z,15.44
2019-05-30T01:15:14.225Z,15.40
2019-05-30T01:17:40.082Z,15.47
2019-05-30T01:20:07.455Z,15.49
2019-05-30T01:22:33.500Z,15.47
2019-05-30T01:24:59.365Z,15.27
2019-05-30T01:27:25.222Z,15.43
2019-05-30T01:29:51.074Z,15.37
2019-05-30T01:32:29.144Z,15.29
2019-05-30T01:34:57.591Z,15.30
2019-05-30T01:37:23.654Z,15.38
2019-05-30T01:39:49.527Z,15.39
2019-05-30T01:42:15.427Z,15.39
2019-05-30T01:44:41.286Z,15.25
2019-05-30T01:47:08.299Z,15.41
2019-05-30T01:49:34.353Z,15.23
2019-05-30T01:52:00.360Z,15.30
2019-05-30T01:54:26.290Z,15.32
2019-05-30T01:56:53.306Z,15.27
2019-05-30T01:59:19.303Z,15.35
2019-05-30T02:01:45.474Z,15.34
2019-05-30T02:04:11.372Z,15.33
2019-05-30T02:06:38.206Z,15.41
2019-05-30T02:09:05.668Z,15.27
2019-05-30T02:11:31.516Z,15.32
2019-05-30T02:13:57.407Z,15.39
2019-05-30T02:16:23.336Z,15.29
2019-05-30T02:18:49.251Z,15.23
2019-05-30T02:21:15.070Z,15.34
2019-05-30T02:23:40.930Z,15.20
2019-05-30T02:26:06.795Z,15.33
2019-05-30T02:28:32.671Z,15.35
2019-05-30T02:30:58.525Z,15.21
2019-05-30T02:33:24.384Z,15.34
2019-05-30T02:35:50.543Z,15.25
2019-05-30T02:38:16.455Z,15.32
2019-05-30T02:40:42.313Z,15.19
2019-05-30T02:43:12.153Z,15.25
2019-05-30T02:45:38.449Z,15.17
2019-05-30T02:48:05.474Z,15.15
2019-05-30T02:50:35.988Z,15.09
2019-05-30T02:53:03.540Z,15.19
2019-05-30T02:55:29.617Z,14.91
2019-05-30T02:57:55.489Z,14.95
2019-05-30T03:00:32.021Z,14.70
2019-05-30T03:02:57.873Z,14.92
2019-05-30T03:05:23.735Z,15.02
2019-05-30T03:07:49.788Z,14.99
2019-05-30T03:10:16.055Z,14.76
2019-05-30T03:12:42.011Z,14.81
2019-05-30T03:15:11.777Z,14.59
2019-05-30T03:17:35.827Z,14.72
2019-05-30T03:20:07.962Z,14.67
2019-05-30T03:22:30.543Z,14.67
2019-05-30T03:24:56.434Z,14.75
2019-05-30T03:27:22.400Z,14.80
2019-05-30T03:29:48.246Z,14.76
2019-05-30T03:33:00.967Z,14.67
2019-05-30T03:34:41.893Z,14.58
2019-05-30T03:37:16.734Z,14.67
2019-05-30T03:39:35.501Z,14.69
2019-05-30T03:42:01.353Z,14.63
2019-05-30T03:44:27.303Z,14.55
2019-05-30T03:46:56.990Z,14.38
2019-05-30T03:49:26.655Z,14.45
2019-05-30T03:51:56.314Z,14.46
2019-05-30T03:54:24.759Z,14.46
2019-05-30T03:56:54.416Z,14.44
2019-05-30T03:59:29.842Z,14.52
2019-05-30T04:01:57.528Z,14.57
2019-05-30T04:04:27.129Z,14.48
2019-05-30T04:06:56.821Z,14.39
2019-05-30T04:09:25.474Z,14.38
2019-05-30T04:12:21.087Z,14.50
2019-05-30T04:14:50.751Z,14.60
2019-05-30T04:17:18.297Z,14.57
2019-05-30T04:19:44.358Z,14.47
2019-05-30T04:22:11.602Z,14.57
2019-05-30T04:24:37.897Z,14.63
2019-05-30T04:27:03.741Z,14.44
2019-05-30T04:29:29.617Z,14.43
2019-05-30T04:31:55.464Z,14.52
2019-05-30T04:34:21.327Z,14.30
2019-05-30T04:36:47.194Z,14.38
2019-05-30T04:39:14.613Z,14.24
2019-05-30T04:41:40.790Z,14.36
2019-05-30T04:44:06.681Z,14.34
2019-05-30T04:46:32.531Z,14.34
2019-05-30T04:48:58.399Z,14.45
2019-05-30T04:51:24.376Z,14.41
2019-05-30T04:53:50.233Z,14.41
2019-05-30T04:56:17.034Z,14.37
2019-05-30T04:58:43.870Z,14.50
2019-05-30T05:01:11.007Z,14.47
2019-05-30T05:03:45.877Z,14.57
2019-05-30T05:06:04.846Z,14.55
2019-05-30T05:08:31.292Z,14.55
2019-05-30T05:10:57.160Z,14.54
2019-05-30T05:13:23.038Z,14.48
2019-05-30T05:15:48.903Z,14.44
2019-05-30T05:18:15.077Z,14.53
2019-05-30T05:20:41.046Z,14.60
2019-05-30T05:23:06.903Z,14.59
2019-05-30T05:25:32.756Z,14.49
2019-05-30T05:27:58.630Z,14.54
2019-05-30T05:30:26.260Z,14.66
2019-05-30T05:32:52.162Z,14.66
2019-05-30T05:35:18.702Z,14.65
2019-05-30T05:37:44.924Z,14.62
2019-05-30T05:40:11.233Z,14.49
2019-05-30T05:42:37.167Z,14.48
2019-05-30T05:45:07.267Z,14.46
2019-05-30T05:47:33.173Z,14.32
2019-05-30T05:49:59.117Z,14.42
2019-05-30T05:52:25.071Z,14.52
2019-05-30T05:54:50.960Z,14.50
2019-05-30T05:57:16.894Z,14.63
2019-05-30T05:59:42.756Z,14.67
2019-05-30T06:02:09.434Z,14.64
2019-05-30T06:04:35.434Z,14.54
2019-05-30T06:07:01.325Z,14.60
2019-05-30T06:09:27.246Z,14.56
2019-05-30T06:11:53.108Z,14.65
2019-05-30T06:14:19.860Z,14.67
2019-05-30T06:16:45.945Z,14.66
2019-05-30T06:19:11.812Z,14.64
2019-05-30T06:21:53.165Z,14.64
2019-05-30T06:24:08.746Z,14.59
2019-05-30T06:26:34.608Z,14.67
2019-05-30T06:29:00.577Z,14.69
2019-05-30T06:31:26.667Z,14.61
2019-05-30T06:33:52.683Z,14.54
2019-05-30T06:36:18.837Z,14.49
2019-05-30T06:38:44.795Z,14.65
2019-05-30T06:41:10.697Z,14.68
2019-05-30T06:43:36.551Z,14.56
2019-05-30T06:46:02.479Z,14.69
2019-05-30T06:48:28.784Z,14.68
2019-05-30T06:50:54.785Z,14.56
2019-05-30T06:53:21.002Z,14.61
2019-05-30T06:55:47.075Z,14.66
2019-05-30T06:58:12.933Z,14.62
2019-05-30T07:00:38.789Z,14.76
2019-05-30T07:03:04.741Z,14.83
2019-05-30T07:05:32.250Z,14.83
2019-05-30T07:07:59.220Z,14.79
2019-05-30T07:10:25.079Z,14.86
2019-05-30T07:12:50.973Z,14.86
2019-05-30T07:15:19.230Z,14.86
2019-05-30T07:17:45.250Z,14.87
2019-05-30T07:20:11.614Z,14.96
2019-05-30T07:22:37.489Z,14.89
2019-05-30T07:25:04.779Z,14.89
2019-05-30T07:27:30.639Z,14.98
2019-05-30T07:29:56.497Z,14.92
2019-05-30T07:32:22.374Z,14.91
2019-05-30T07:34:48.430Z,14.97
2019-05-30T07:37:14.347Z,14.98
2019-05-30T07:39:40.224Z,14.94
2019-05-30T07:42:06.928Z,15.02
2019-05-30T07:44:32.944Z,15.13
2019-05-30T07:46:58.802Z,15.12
2019-05-30T07:49:24.673Z,15.17
2019-05-30T07:51:50.844Z,15.16
2019-05-30T07:54:16.796Z,15.11
2019-05-30T07:56:42.900Z,15.01
2019-05-30T07:59:08.696Z,15.14
2019-05-30T08:01:34.715Z,15.14
2019-05-30T08:04:00.624Z,15.17
2019-05-30T08:06:27.466Z,15.16
2019-05-30T08:08:53.538Z,15.21
2019-05-30T08:11:19.501Z,15.20
2019-05-30T08:13:45.386Z,15.23
2019-05-30T08:16:11.257Z,15.22
2019-05-30T08:18:37.962Z,15.20
2019-05-30T08:21:04.016Z,15.25
2019-05-30T08:23:30.120Z,15.28
2019-05-30T08:25:56.051Z,15.33
2019-05-30T08:28:22.376Z,15.33
2019-05-30T08:30:49.211Z,15.35
2019-05-30T08:33:15.089Z,15.39
2019-05-30T08:35:49.150Z,15.35
2019-05-30T08:38:08.725Z,15.42
2019-05-30T08:40:35.391Z,15.47
2019-05-30T08:43:01.444Z,15.50
2019-05-30T08:45:27.617Z,15.44
2019-05-30T08:47:53.497Z,15.51
2019-05-30T08:50:19.760Z,15.48
2019-05-30T08:52:45.706Z,15.48
2019-05-30T08:55:12.364Z,15.46
2019-05-30T08:57:38.720Z,15.33
2019-05-30T09:00:06.392Z,15.32
2019-05-30T09:02:32.256Z,15.32
2019-05-30T09:04:58.110Z,15.35
2019-05-30T09:07:24.482Z,15.42
2019-05-30T09:09:50.352Z,15.44
2019-05-30T09:12:16.206Z,15.53
2019-05-30T09:14:42.843Z,15.44
2019-05-30T09:17:08.982Z,15.39
2019-05-30T09:19:34.852Z,15.47
2019-05-30T09:22:00.728Z,15.43
2019-05-30T09:24:26.588Z,15.38
2019-05-30T09:26:52.441Z,15.43
2019-05-30T09:29:18.328Z,15.39
2019-05-30T09:31:44.585Z,15.30
2019-05-30T09:34:12.120Z,15.44
2019-05-30T09:36:39.387Z,15.55
2019-05-30T09:39:06.880Z,15.61
2019-05-30T09:41:32.741Z,15.67
2019-05-30T09:43:58.599Z,15.78
2019-05-30T09:46:24.490Z,15.73
2019-05-30T09:48:51.713Z,15.78
2019-05-30T09:51:17.785Z,15.87
2019-05-30T09:53:43.883Z,15.88
2019-05-30T09:56:10.202Z,15.94
2019-05-30T09:58:36.050Z,16.11
2019-05-30T10:01:01.913Z,16.11
2019-05-30T10:03:27.778Z,16.18
2019-05-30T10:05:53.630Z,16.26
2019-05-30T10:08:19.573Z,16.27
2019-05-30T10:10:45.740Z,16.31
2019-05-30T10:13:13.427Z,16.30
2019-05-30T10:15:39.376Z,16.37
2019-05-30T10:18:05.544Z,16.26
2019-05-30T10:23:11.582Z,16.31
2019-05-30T10:25:37.555Z,16.20
2019-05-30T10:28:03.629Z,16.11
2019-05-30T10:30:29.795Z,16.08
2019-05-30T10:32:56.002Z,16.06
2019-05-30T10:35:22.144Z,16.01
2019-05-30T10:37:49.055Z,16.11
2019-05-30T10:40:15.796Z,16.05
2019-05-30T10:42:41.725Z,16.08
2019-05-30T10:45:09.278Z,16.10
2019-05-30T10:47:35.148Z,16.10
2019-05-30T10:50:01.909Z,16.11
2019-05-30T10:52:27.784Z,16.21
2019-05-30T10:54:53.647Z,16.17
2019-05-30T10:57:19.622Z,16.29
2019-05-30T10:59:45.968Z,16.32
2019-05-30T11:02:13.282Z,16.30
2019-05-30T11:04:39.144Z,16.27
2019-05-30T11:07:12.269Z,16.15
2019-05-30T11:09:41.645Z,16.20
2019-05-30T11:12:07.523Z,16.19
2019-05-30T11:14:33.390Z,16.27
2019-05-30T11:16:59.247Z,16.32
2019-05-30T11:19:25.129Z,16.44
2019-05-30T11:21:52.662Z,16.61
2019-05-30T11:24:18.817Z,16.58
2019-05-30T11:26:44.845Z,16.79
2019-05-30T11:29:10.695Z,16.87
2019-05-30T11:31:39.206Z,16.94
2019-05-30T11:34:05.202Z,17.06
2019-05-30T11:36:31.057Z,17.17
2019-05-30T11:38:57.418Z,17.31
2019-05-30T11:41:23.405Z,17.39
2019-05-30T11:43:51.206Z,17.52
2019-05-30T11:46:17.210Z,17.58
2019-05-30T11:48:49.578Z,17.59
2019-05-30T11:51:17.044Z,17.59
2019-05-30T11:53:49.755Z,17.51
2019-05-30T11:56:18.993Z,17.48
2019-05-30T11:58:44.801Z,17.57
2019-05-30T12:01:10.686Z,17.55
2019-05-30T12:03:36.538Z,17.53
2019-05-30T12:06:02.608Z,17.53
2019-05-30T12:08:28.482Z,17.47
2019-05-30T12:10:55.019Z,17.45
2019-05-30T12:13:21.781Z,17.67
2019-05-30T12:15:47.638Z,17.81
2019-05-30T12:18:13.547Z,18.04
2019-05-30T12:20:40.815Z,18.29
2019-05-30T12:23:06.666Z,18.49
2019-05-30T12:25:32.532Z,18.74
2019-05-30T12:27:58.400Z,18.86
2019-05-30T12:30:24.467Z,18.81
2019-05-30T12:32:50.319Z,18.83
2019-05-30T12:35:17.105Z,19.19
2019-05-30T12:37:54.234Z,19.55
2019-05-30T12:40:11.426Z,19.47
2019-05-30T12:42:37.902Z,19.55
2019-05-30T12:45:07.661Z,19.60
2019-05-30T12:47:38.490Z,19.93
2019-05-30T12:50:07.287Z,19.90
2019-05-30T12:52:33.168Z,20.00
2019-05-30T12:54:59.046Z,20.23
2019-05-30T12:57:24.915Z,20.30
2019-05-30T12:59:50.776Z,20.32
2019-05-30T13:02:16.616Z,20.33
2019-05-30T13:04:42.470Z,20.14
2019-05-30T13:07:08.411Z,20.28
2019-05-30T13:09:34.258Z,20.59
2019-05-30T13:12:00.540Z,20.63
2019-05-30T13:14:26.607Z,20.81
2019-05-30T13:16:52.456Z,20.91
2019-05-30T13:19:18.319Z,20.77
2019-05-30T13:21:44.175Z,21.10
2019-05-30T13:24:10.030Z,21.23
2019-05-30T13:26:35.886Z,21.13
2019-05-30T13:29:02.308Z,21.45
2019-05-30T13:31:28.349Z,21.77
2019-05-30T13:33:54.221Z,21.83
2019-05-30T13:36:20.099Z,21.89
2019-05-30T13:38:46.010Z,22.04
2019-05-30T13:41:11.862Z,22.17
2019-05-30T13:43:37.817Z,22.26
2019-05-30T13:46:06.382Z,22.31
2019-05-30T13:48:34.721Z,21.71
2019-05-30T13:51:00.795Z,21.71
2019-05-30T13:53:27.062Z,21.94
2019-05-30T13:55:53.026Z,22.13
2019-05-30T13:58:18.891Z,22.46
2019-05-30T14:00:44.748Z,22.02
2019-05-30T14:03:10.713Z,21.69
2019-05-30T14:05:36.590Z,21.48
2019-05-30T14:08:02.746Z,21.55
2019-05-30T14:10:28.819Z,21.62
2019-05-30T14:12:54.719Z,21.65
2019-05-30T14:15:20.658Z,21.72
2019-05-30T14:17:46.522Z,21.72
2019-05-30T14:20:14.531Z,21.63
2019-05-30T14:22:40.499Z,21.61
2019-05-30T14:25:07.526Z,21.60
2019-05-30T14:27:34.009Z,21.73
2019-05-30T14:30:04.651Z,21.80
2019-05-30T14:32:30.463Z,21.87
2019-05-30T14:34:56.364Z,21.89
2019-05-30T14:37:22.222Z,21.79
2019-05-30T14:39:48.115Z,21.71
2019-05-30T14:42:13.975Z,21.83
2019-05-30T14:44:39.829Z,22.23
2019-05-30T14:47:06.364Z,22.36
2019-05-30T14:49:32.290Z,22.05
2019-05-30T14:51:58.145Z,21.93
2019-05-30T14:54:24.012Z,22.02
2019-05-30T14:56:49.921Z,22.11
2019-05-30T14:59:15.779Z,22.30
2019-05-30T15:01:41.679Z,22.11
2019-05-30T15:04:07.535Z,22.23
2019-05-30T15:06:33.871Z,22.42
2019-05-30T15:09:15.300Z,22.52
2019-05-30T15:11:29.197Z,22.50
2019-05-30T15:13:58.499Z,22.08
2019-05-30T15:16:24.912Z,21.91
2019-05-30T15:18:55.310Z,22.07
2019-05-30T15:21:21.327Z,22.09
2019-05-30T15:23:47.225Z,22.03
2019-05-30T15:26:14.200Z,21.90
2019-05-30T15:28:40.130Z,21.79
2019-05-30T15:31:06.640Z,21.57
2019-05-30T15:33:32.757Z,21.50
2019-05-30T15:35:58.632Z,21.33
2019-05-30T15:38:24.486Z,21.39
2019-05-30T15:40:50.359Z,21.30
2019-05-30T15:43:16.220Z,21.25
2019-05-30T15:45:42.088Z,21.21
2019-05-30T15:48:08.302Z,21.19
2019-05-30T15:50:34.460Z,21.21
2019-05-30T15:53:00.339Z,21.30
2019-05-30T15:55:26.510Z,21.19
2019-05-30T15:57:52.378Z,21.18
2019-05-30T16:00:19.998Z,21.24
2019-05-30T16:02:46.046Z,21.22
2019-05-30T16:05:12.924Z,21.22
2019-05-30T16:07:38.789Z,21.15
2019-05-30T16:10:05.747Z,21.07
2019-05-30T16:12:31.679Z,21.07
2019-05-30T16:14:57.542Z,21.03
2019-05-30T16:17:23.424Z,21.10
2019-05-30T16:19:49.331Z,21.12
2019-05-30T16:22:16.278Z,21.27
2019-05-30T16:24:42.254Z,21.15
2019-05-30T16:27:08.124Z,21.05
2019-05-30T16:29:33.994Z,21.03
2019-05-30T16:31:59.883Z,20.89
2019-05-30T16:34:26.425Z,20.84
2019-05-30T16:36:52.295Z,20.75
2019-05-30T16:39:18.238Z,20.71
2019-05-30T16:41:44.117Z,20.73
2019-05-30T16:44:10.084Z,20.68
2019-05-30T16:46:35.955Z,20.70
2019-05-30T16:49:01.811Z,20.69
2019-05-30T16:51:27.664Z,20.65
2019-05-30T16:53:53.540Z,20.61
2019-05-30T16:56:19.476Z,20.63
2019-05-30T16:58:45.285Z,20.63
2019-05-30T17:01:11.130Z,20.65
2019-05-30T17:03:37.850Z,20.78
2019-05-30T17:06:03.886Z,20.81
2019-05-30T17:08:29.750Z,20.82
2019-05-30T17:10:55.623Z,20.83
2019-05-30T17:13:21.710Z,20.79
2019-05-30T17:15:47.567Z,20.91
2019-05-30T17:18:13.440Z,20.91
2019-05-30T17:20:39.342Z,20.97
2019-05-30T17:23:05.194Z,20.93
2019-05-30T17:25:31.059Z,20.98
2019-05-30T17:27:57.178Z,20.97
2019-05-30T17:30:23.763Z,20.97
2019-05-30T17:32:49.660Z,20.97
2019-05-30T17:35:16.119Z,20.99
2019-05-30T17:37:41.986Z,20.85
2019-05-30T17:40:10.817Z,20.85
2019-05-30T17:42:39.973Z,20.84
2019-05-30T17:45:06.933Z,20.81
2019-05-30T17:47:32.781Z,20.73
2019-05-30T17:49:58.642Z,20.72
2019-05-30T17:52:25.593Z,20.70
2019-05-30T17:54:51.713Z,20.66
2019-05-30T17:57:17.715Z,20.69
2019-05-30T17:59:43.589Z,20.67
2019-05-30T18:02:09.446Z,20.58
2019-05-30T18:04:35.321Z,20.57
2019-05-30T18:07:01.197Z,20.60
2019-05-30T18:09:27.201Z,20.54
2019-05-30T18:11:53.043Z,20.54
2019-05-30T18:14:18.907Z,20.49
2019-05-30T18:16:44.809Z,20.50
2019-05-30T18:19:10.711Z,20.44
2019-05-30T18:21:36.599Z,20.41
2019-05-30T18:24:03.170Z,20.39
2019-05-30T18:26:30.086Z,20.44
2019-05-30T18:28:55.943Z,20.39
2019-05-30T18:31:21.986Z,20.36
2019-05-30T18:33:47.887Z,20.35
2019-05-30T18:36:13.731Z,20.35
2019-05-30T18:38:39.604Z,20.34
2019-05-30T18:41:11.314Z,20.31
2019-05-30T18:43:33.222Z,20.30
2019-05-30T18:45:59.084Z,20.24
2019-05-30T18:48:25.278Z,20.25
2019-05-30T18:50:51.197Z,20.26
2019-05-30T18:53:17.060Z,20.24
2019-05-30T18:55:42.943Z,20.16
2019-05-30T18:58:08.836Z,20.17
2019-05-30T19:00:34.747Z,20.14
2019-05-30T19:03:00.617Z,20.11
2019-05-30T19:05:26.677Z,20.12
2019-05-30T19:07:52.539Z,20.03
2019-05-30T19:10:18.498Z,20.00
2019-05-30T19:12:46.529Z,19.98
2019-05-30T19:15:15.419Z,19.96
2019-05-30T19:17:41.368Z,19.99
2019-05-30T19:20:07.759Z,19.97
2019-05-30T19:22:34.207Z,19.93
2019-05-30T19:25:00.117Z,19.93
2019-05-30T19:27:26.283Z,19.91
2019-05-30T19:29:52.198Z,19.85
2019-05-30T19:32:18.058Z,19.87
2019-05-30T19:34:43.906Z,19.83
2019-05-30T19:37:09.865Z,19.80
2019-05-30T19:39:35.777Z,19.77
2019-05-30T19:42:01.571Z,19.80
2019-05-30T19:44:27.757Z,19.75
2019-05-30T19:46:53.780Z,19.76
2019-05-30T19:49:19.646Z,19.74
2019-05-30T19:51:45.513Z,19.76
2019-05-30T19:54:11.362Z,19.70
2019-05-30T19:56:39.934Z,19.70
2019-05-30T19:59:04.979Z,19.71
2019-05-30T20:01:31.714Z,19.71
2019-05-30T20:03:57.606Z,19.65
2019-05-30T20:06:24.826Z,19.62
2019-05-30T20:08:55.826Z,19.61
2019-05-30T20:11:23.014Z,19.61
2019-05-30T20:13:52.405Z,19.61
2019-05-30T20:16:20.771Z,19.58
2019-05-30T20:18:46.604Z,19.56
2019-05-30T20:21:12.468Z,19.52
2019-05-30T20:23:51.763Z,19.53
2019-05-30T20:26:06.109Z,19.50
2019-05-30T20:28:32.706Z,19.49
2019-05-30T20:30:58.642Z,19.46
2019-05-30T20:33:24.495Z,19.45
2019-05-30T20:35:51.172Z,19.48
2019-05-30T20:38:17.033Z,19.47
2019-05-30T20:40:43.054Z,19.47
2019-05-30T20:43:08.946Z,19.48
2019-05-30T20:45:38.425Z,19.45
2019-05-30T20:48:02.688Z,19.42
2019-05-30T20:50:28.567Z,19.38
2019-05-30T20:52:54.447Z,19.36
2019-05-30T20:55:20.315Z,19.37
2019-05-30T20:57:46.904Z,19.34
2019-05-30T21:00:14.855Z,19.35
2019-05-30T21:02:40.943Z,19.32
2019-05-30T21:05:08.268Z,19.32
2019-05-30T21:07:35.744Z,19.29
2019-05-30T21:10:05.267Z,19.23
2019-05-30T21:12:37.875Z,19.19
2019-05-30T21:15:03.810Z,19.12
2019-05-30T21:17:31.470Z,19.08
2019-05-30T21:19:57.507Z,19.07
2019-05-30T21:22:23.363Z,19.06
2019-05-30T21:24:49.226Z,19.10
2019-05-30T21:27:15.092Z,19.08
2019-05-30T21:29:41.142Z,19.03
2019-05-30T21:32:07.048Z,19.06
2019-05-30T21:34:33.074Z,19.05
2019-05-30T21:37:00.063Z,19.02
2019-05-30T21:39:25.917Z,19.02
2019-05-30T21:41:51.766Z,19.04
2019-05-30T21:44:17.635Z,19.05
2019-05-30T21:46:44.660Z,19.05
2019-05-30T21:49:10.653Z,19.03
2019-05-30T21:51:36.515Z,19.01
2019-05-30T21:54:02.417Z,18.99
2019-05-30T21:56:28.278Z,19.00
2019-05-30T21:58:54.141Z,19.01
2019-05-30T22:01:24.014Z,19.02
2019-05-30T22:03:51.003Z,18.99
2019-05-30T22:06:17.027Z,19.00
2019-05-30T22:08:43.058Z,18.97
2019-05-30T22:11:08.953Z,18.94
2019-05-30T22:13:34.808Z,18.92
2019-05-30T22:16:00.664Z,18.94
2019-05-30T22:18:26.516Z,18.93
2019-05-30T22:20:52.372Z,18.92
2019-05-30T22:23:18.233Z,18.91
2019-05-30T22:25:44.271Z,18.90
2019-05-30T22:28:10.142Z,18.87
2019-05-30T22:30:36.007Z,18.87
2019-05-30T22:33:05.301Z,18.86
2019-05-30T22:35:31.170Z,18.85
2019-05-30T22:37:57.048Z,18.82
2019-05-30T22:40:22.897Z,18.80
2019-05-30T22:42:48.767Z,18.77
2019-05-30T22:45:15.049Z,18.77
2019-05-30T22:47:40.930Z,18.78
2019-05-30T22:50:07.334Z,18.75
2019-05-30T22:52:33.240Z,18.73
2019-05-30T22:54:59.101Z,18.73
2019-05-30T22:57:24.947Z,18.70
2019-05-30T22:59:50.998Z,18.69
2019-05-30T23:02:20.765Z,18.60
2019-05-30T23:04:48.027Z,18.59
2019-05-30T23:07:13.977Z,18.54
2019-05-30T23:09:39.823Z,18.54
2019-05-30T23:12:05.685Z,18.52
2019-05-30T23:14:31.545Z,18.52
2019-05-30T23:16:57.422Z,18.43
2019-05-30T23:19:23.286Z,18.48
2019-05-30T23:21:49.170Z,18.38
2019-05-30T23:24:15.064Z,18.41
2019-05-30T23:26:40.924Z,18.38
2019-05-30T23:29:06.825Z,18.39
2019-05-30T23:31:32.670Z,18.38
2019-05-30T23:33:58.709Z,18.36
2019-05-30T23:36:24.590Z,18.31
2019-05-30T23:38:50.786Z,18.34
2019-05-30T23:41:16.731Z,18.33
2019-05-30T23:43:55.185Z,18.30
2019-05-30T23:46:10.347Z,18.29
2019-05-30T23:48:36.206Z,18.24
2019-05-30T23:51:02.053Z,18.25
2019-05-30T23:53:27.907Z,18.29
2019-05-30T23:55:54.287Z,18.18
2019-05-30T23:58:20.147Z,18.16
